sensor_id;sensor_type;location;lat;lon;timestamp;P1;durP1;ratioP1;P2;durP2;ratioP2
45322;SDS011;31382;50.200;8.674;2023-07-08T00:03:59;8.70;;;2.95;;
45322;SDS011;31382;50.200;8.674;2023-07-08T00:09:00;8.27;;;3.40;;
45322;SDS011;31382;50.200;8.674;2023-07-08T00:14:02;4.65;;;2.55;;
45322;SDS011;31382;50.200;8.674;2023-07-08T00:19:07;5.68;;;2.92;;
45322;SDS011;31382;50.200;8.674;2023-07-08T00:24:10;5.55;;;2.15;;
45322;SDS011;31382;50.200;8.674;2023-07-08T00:29:12;6.10;;;3.10;;
45322;SDS011;31382;50.200;8.674;2023-07-08T00:34:17;6.35;;;2.97;;
45322;SDS011;31382;50.200;8.674;2023-07-08T00:39:18;4.50;;;2.65;;
45322;SDS011;31382;50.200;8.674;2023-07-08T00:44:20;5.72;;;2.90;;
45322;SDS011;31382;50.200;8.674;2023-07-08T00:49:39;13.85;;;2.88;;
45322;SDS011;31382;50.200;8.674;2023-07-08T00:54:44;5.05;;;2.95;;
45322;SDS011;31382;50.200;8.674;2023-07-08T00:59:47;7.30;;;2.80;;
45322;SDS011;31382;50.200;8.674;2023-07-08T01:05:06;5.15;;;2.70;;
45322;SDS011;31382;50.200;8.674;2023-07-08T01:10:16;6.82;;;2.50;;
45322;SDS011;31382;50.200;8.674;2023-07-08T01:15:24;7.75;;;2.83;;
45322;SDS011;31382;50.200;8.674;2023-07-08T01:20:32;7.72;;;2.83;;
45322;SDS011;31382;50.200;8.674;2023-07-08T01:25:35;5.68;;;2.78;;
45322;SDS011;31382;50.200;8.674;2023-07-08T01:30:36;7.05;;;2.70;;
45322;SDS011;31382;50.200;8.674;2023-07-08T01:35:38;4.88;;;2.40;;
45322;SDS011;31382;50.200;8.674;2023-07-08T01:40:47;5.00;;;2.15;;
45322;SDS011;31382;50.200;8.674;2023-07-08T01:45:53;6.82;;;2.90;;
45322;SDS011;31382;50.200;8.674;2023-07-08T01:50:57;5.80;;;3.25;;
45322;SDS011;31382;50.200;8.674;2023-07-08T02:01:05;7.78;;;3.17;;
45322;SDS011;31382;50.200;8.674;2023-07-08T02:06:07;5.82;;;2.63;;
45322;SDS011;31382;50.200;8.674;2023-07-08T02:11:09;6.18;;;2.42;;
45322;SDS011;31382;50.200;8.674;2023-07-08T02:16:11;4.30;;;2.42;;
45322;SDS011;31382;50.200;8.674;2023-07-08T02:21:12;5.53;;;2.53;;
45322;SDS011;31382;50.200;8.674;2023-07-08T02:26:13;5.88;;;2.63;;
45322;SDS011;31382;50.200;8.674;2023-07-08T02:31:15;5.07;;;2.65;;
45322;SDS011;31382;50.200;8.674;2023-07-08T02:36:16;4.60;;;2.78;;
45322;SDS011;31382;50.200;8.674;2023-07-08T02:41:18;6.53;;;2.63;;
45322;SDS011;31382;50.200;8.674;2023-07-08T02:46:19;5.15;;;2.50;;
45322;SDS011;31382;50.200;8.674;2023-07-08T02:51:21;5.10;;;2.75;;
45322;SDS011;31382;50.200;8.674;2023-07-08T02:56:22;4.97;;;2.63;;
45322;SDS011;31382;50.200;8.674;2023-07-08T03:01:24;4.75;;;2.63;;
45322;SDS011;31382;50.200;8.674;2023-07-08T03:06:27;5.43;;;2.83;;
45322;SDS011;31382;50.200;8.674;2023-07-08T03:11:29;7.10;;;3.70;;
45322;SDS011;31382;50.200;8.674;2023-07-08T03:16:30;5.07;;;3.20;;
45322;SDS011;31382;50.200;8.674;2023-07-08T03:21:32;6.30;;;2.80;;
45322;SDS011;31382;50.200;8.674;2023-07-08T03:26:33;5.93;;;2.70;;
45322;SDS011;31382;50.200;8.674;2023-07-08T03:31:35;5.25;;;2.78;;
45322;SDS011;31382;50.200;8.674;2023-07-08T03:36:40;5.80;;;2.63;;
45322;SDS011;31382;50.200;8.674;2023-07-08T03:41:51;5.80;;;3.25;;
45322;SDS011;31382;50.200;8.674;2023-07-08T03:46:53;7.15;;;3.10;;
45322;SDS011;31382;50.200;8.674;2023-07-08T03:51:55;5.78;;;3.33;;
45322;SDS011;31382;50.200;8.674;2023-07-08T03:56:56;7.07;;;2.90;;
45322;SDS011;31382;50.200;8.674;2023-07-08T04:01:58;5.40;;;2.88;;
45322;SDS011;31382;50.200;8.674;2023-07-08T04:06:59;6.18;;;2.83;;
45322;SDS011;31382;50.200;8.674;2023-07-08T04:12:01;7.50;;;3.08;;
45322;SDS011;31382;50.200;8.674;2023-07-08T04:17:02;6.65;;;2.92;;
45322;SDS011;31382;50.200;8.674;2023-07-08T04:22:04;6.68;;;2.92;;
45322;SDS011;31382;50.200;8.674;2023-07-08T04:27:08;5.32;;;3.03;;
45322;SDS011;31382;50.200;8.674;2023-07-08T04:32:14;5.13;;;2.60;;
45322;SDS011;31382;50.200;8.674;2023-07-08T04:37:16;8.15;;;2.85;;
45322;SDS011;31382;50.200;8.674;2023-07-08T04:42:17;5.13;;;2.20;;
45322;SDS011;31382;50.200;8.674;2023-07-08T04:47:19;5.97;;;2.88;;
45322;SDS011;31382;50.200;8.674;2023-07-08T04:52:21;6.45;;;2.83;;
45322;SDS011;31382;50.200;8.674;2023-07-08T04:57:22;6.78;;;3.17;;
45322;SDS011;31382;50.200;8.674;2023-07-08T05:02:24;3.90;;;2.65;;
45322;SDS011;31382;50.200;8.674;2023-07-08T05:07:25;9.45;;;2.90;;
45322;SDS011;31382;50.200;8.674;2023-07-08T05:12:27;4.80;;;2.60;;
45322;SDS011;31382;50.200;8.674;2023-07-08T05:17:28;4.28;;;2.47;;
45322;SDS011;31382;50.200;8.674;2023-07-08T05:22:31;6.93;;;2.83;;
45322;SDS011;31382;50.200;8.674;2023-07-08T05:27:32;6.75;;;2.67;;
45322;SDS011;31382;50.200;8.674;2023-07-08T05:32:35;3.95;;;2.13;;
45322;SDS011;31382;50.200;8.674;2023-07-08T05:37:36;4.05;;;2.38;;
45322;SDS011;31382;50.200;8.674;2023-07-08T05:42:38;4.32;;;2.25;;
45322;SDS011;31382;50.200;8.674;2023-07-08T05:47:39;4.00;;;2.00;;
45322;SDS011;31382;50.200;8.674;2023-07-08T05:52:41;5.18;;;2.15;;
45322;SDS011;31382;50.200;8.674;2023-07-08T05:57:43;5.53;;;1.70;;
45322;SDS011;31382;50.200;8.674;2023-07-08T06:02:44;4.10;;;2.22;;
45322;SDS011;31382;50.200;8.674;2023-07-08T06:07:46;3.65;;;2.00;;
45322;SDS011;31382;50.200;8.674;2023-07-08T06:12:47;3.72;;;2.20;;
45322;SDS011;31382;50.200;8.674;2023-07-08T06:17:49;4.78;;;2.25;;
45322;SDS011;31382;50.200;8.674;2023-07-08T06:22:50;4.72;;;1.77;;
45322;SDS011;31382;50.200;8.674;2023-07-08T06:27:54;3.05;;;1.80;;
45322;SDS011;31382;50.200;8.674;2023-07-08T06:32:56;4.15;;;1.50;;
45322;SDS011;31382;50.200;8.674;2023-07-08T06:38:01;3.60;;;2.30;;
45322;SDS011;31382;50.200;8.674;2023-07-08T06:43:02;6.15;;;1.90;;
45322;SDS011;31382;50.200;8.674;2023-07-08T06:48:04;4.90;;;1.55;;
45322;SDS011;31382;50.200;8.674;2023-07-08T06:53:06;3.28;;;1.73;;
45322;SDS011;31382;50.200;8.674;2023-07-08T06:58:09;3.50;;;1.77;;
45322;SDS011;31382;50.200;8.674;2023-07-08T07:03:10;5.28;;;1.40;;
45322;SDS011;31382;50.200;8.674;2023-07-08T07:08:13;6.50;;;1.75;;
45322;SDS011;31382;50.200;8.674;2023-07-08T07:13:14;3.65;;;1.27;;
45322;SDS011;31382;50.200;8.674;2023-07-08T07:18:16;2.92;;;1.42;;
45322;SDS011;31382;50.200;8.674;2023-07-08T07:23:17;2.35;;;1.63;;
45322;SDS011;31382;50.200;8.674;2023-07-08T07:28:19;3.40;;;1.38;;
45322;SDS011;31382;50.200;8.674;2023-07-08T07:33:20;4.43;;;1.70;;
45322;SDS011;31382;50.200;8.674;2023-07-08T07:38:22;3.15;;;1.30;;
45322;SDS011;31382;50.200;8.674;2023-07-08T07:43:25;3.95;;;1.77;;
45322;SDS011;31382;50.200;8.674;2023-07-08T07:48:27;3.53;;;1.65;;
45322;SDS011;31382;50.200;8.674;2023-07-08T07:53:29;3.67;;;2.05;;
45322;SDS011;31382;50.200;8.674;2023-07-08T07:58:31;4.10;;;1.95;;
45322;SDS011;31382;50.200;8.674;2023-07-08T08:03:33;3.55;;;2.00;;
45322;SDS011;31382;50.200;8.674;2023-07-08T08:08:34;7.32;;;1.90;;
45322;SDS011;31382;50.200;8.674;2023-07-08T08:13:38;3.72;;;2.30;;
45322;SDS011;31382;50.200;8.674;2023-07-08T08:18:40;2.15;;;1.63;;
45322;SDS011;31382;50.200;8.674;2023-07-08T08:23:41;2.10;;;1.40;;
45322;SDS011;31382;50.200;8.674;2023-07-08T08:28:43;3.13;;;1.70;;
45322;SDS011;31382;50.200;8.674;2023-07-08T08:33:45;2.95;;;1.92;;
45322;SDS011;31382;50.200;8.674;2023-07-08T08:38:46;2.75;;;1.70;;
45322;SDS011;31382;50.200;8.674;2023-07-08T08:43:48;3.00;;;1.75;;
45322;SDS011;31382;50.200;8.674;2023-07-08T08:53:59;3.70;;;2.17;;
45322;SDS011;31382;50.200;8.674;2023-07-08T08:59:11;4.30;;;1.98;;
45322;SDS011;31382;50.200;8.674;2023-07-08T09:04:29;4.00;;;1.92;;
45322;SDS011;31382;50.200;8.674;2023-07-08T09:09:38;3.35;;;2.15;;
45322;SDS011;31382;50.200;8.674;2023-07-08T09:14:47;4.90;;;2.40;;
45322;SDS011;31382;50.200;8.674;2023-07-08T09:19:58;4.18;;;2.00;;
45322;SDS011;31382;50.200;8.674;2023-07-08T09:25:20;4.22;;;2.05;;
45322;SDS011;31382;50.200;8.674;2023-07-08T09:30:25;3.25;;;1.90;;
45322;SDS011;31382;50.200;8.674;2023-07-08T09:35:46;4.03;;;2.28;;
45322;SDS011;31382;50.200;8.674;2023-07-08T09:40:50;6.22;;;3.08;;
45322;SDS011;31382;50.200;8.674;2023-07-08T09:45:58;6.07;;;2.53;;
45322;SDS011;31382;50.200;8.674;2023-07-08T09:51:01;5.78;;;2.63;;
45322;SDS011;31382;50.200;8.674;2023-07-08T09:56:03;7.90;;;2.92;;
45322;SDS011;31382;50.200;8.674;2023-07-08T10:01:10;6.53;;;2.67;;
45322;SDS011;31382;50.200;8.674;2023-07-08T10:06:20;5.53;;;2.40;;
45322;SDS011;31382;50.200;8.674;2023-07-08T10:11:27;4.55;;;2.67;;
45322;SDS011;31382;50.200;8.674;2023-07-08T10:16:31;4.65;;;2.53;;
45322;SDS011;31382;50.200;8.674;2023-07-08T10:21:41;5.45;;;2.92;;
45322;SDS011;31382;50.200;8.674;2023-07-08T10:27:25;4.88;;;3.28;;
45322;SDS011;31382;50.200;8.674;2023-07-08T10:38:10;3.92;;;2.65;;
45322;SDS011;31382;50.200;8.674;2023-07-08T10:43:42;5.18;;;2.50;;
45322;SDS011;31382;50.200;8.674;2023-07-08T10:48:59;4.88;;;2.67;;
45322;SDS011;31382;50.200;8.674;2023-07-08T11:00:02;5.35;;;2.35;;
45322;SDS011;31382;50.200;8.674;2023-07-08T11:10:33;5.65;;;2.60;;
45322;SDS011;31382;50.200;8.674;2023-07-08T11:15:49;3.45;;;2.42;;
45322;SDS011;31382;50.200;8.674;2023-07-08T11:21:02;5.07;;;2.47;;
45322;SDS011;31382;50.200;8.674;2023-07-08T11:26:23;4.40;;;2.45;;
45322;SDS011;31382;50.200;8.674;2023-07-08T11:31:31;5.07;;;2.60;;
45322;SDS011;31382;50.200;8.674;2023-07-08T11:36:35;4.95;;;2.58;;
45322;SDS011;31382;50.200;8.674;2023-07-08T11:41:38;6.38;;;2.33;;
45322;SDS011;31382;50.200;8.674;2023-07-08T11:46:39;4.50;;;2.83;;
45322;SDS011;31382;50.200;8.674;2023-07-08T11:51:56;6.97;;;2.67;;
45322;SDS011;31382;50.200;8.674;2023-07-08T11:57:00;6.03;;;2.83;;
45322;SDS011;31382;50.200;8.674;2023-07-08T12:02:12;4.72;;;2.22;;
45322;SDS011;31382;50.200;8.674;2023-07-08T12:07:19;5.13;;;2.40;;
45322;SDS011;31382;50.200;8.674;2023-07-08T12:12:31;4.30;;;2.72;;
45322;SDS011;31382;50.200;8.674;2023-07-08T12:17:36;5.25;;;3.25;;
45322;SDS011;31382;50.200;8.674;2023-07-08T12:22:40;5.95;;;2.90;;
45322;SDS011;31382;50.200;8.674;2023-07-08T12:27:42;3.67;;;2.45;;
45322;SDS011;31382;50.200;8.674;2023-07-08T12:32:44;6.80;;;2.97;;
45322;SDS011;31382;50.200;8.674;2023-07-08T12:37:47;6.78;;;2.85;;
45322;SDS011;31382;50.200;8.674;2023-07-08T12:42:49;4.95;;;2.60;;
45322;SDS011;31382;50.200;8.674;2023-07-08T12:47:50;4.22;;;2.92;;
45322;SDS011;31382;50.200;8.674;2023-07-08T12:57:57;3.22;;;2.45;;
45322;SDS011;31382;50.200;8.674;2023-07-08T13:03:05;8.20;;;3.28;;
45322;SDS011;31382;50.200;8.674;2023-07-08T13:08:12;4.97;;;3.08;;
45322;SDS011;31382;50.200;8.674;2023-07-08T13:13:22;6.45;;;2.50;;
45322;SDS011;31382;50.200;8.674;2023-07-08T13:18:30;6.25;;;2.90;;
45322;SDS011;31382;50.200;8.674;2023-07-08T13:23:34;4.82;;;2.55;;
45322;SDS011;31382;50.200;8.674;2023-07-08T13:28:36;2.58;;;1.83;;
45322;SDS011;31382;50.200;8.674;2023-07-08T13:33:44;3.63;;;2.40;;
45322;SDS011;31382;50.200;8.674;2023-07-08T13:38:47;3.20;;;2.45;;
45322;SDS011;31382;50.200;8.674;2023-07-08T13:43:50;3.90;;;2.15;;
45322;SDS011;31382;50.200;8.674;2023-07-08T13:48:51;6.70;;;2.35;;
45322;SDS011;31382;50.200;8.674;2023-07-08T13:53:57;5.07;;;1.83;;
45322;SDS011;31382;50.200;8.674;2023-07-08T13:59:12;3.17;;;2.05;;
45322;SDS011;31382;50.200;8.674;2023-07-08T14:04:20;4.40;;;1.98;;
45322;SDS011;31382;50.200;8.674;2023-07-08T14:09:35;5.55;;;2.13;;
45322;SDS011;31382;50.200;8.674;2023-07-08T14:14:36;3.17;;;1.52;;
45322;SDS011;31382;50.200;8.674;2023-07-08T14:19:38;5.88;;;1.83;;
45322;SDS011;31382;50.200;8.674;2023-07-08T14:24:40;4.03;;;1.90;;
45322;SDS011;31382;50.200;8.674;2023-07-08T14:29:42;3.00;;;1.60;;
45322;SDS011;31382;50.200;8.674;2023-07-08T14:34:48;3.50;;;1.63;;
45322;SDS011;31382;50.200;8.674;2023-07-08T14:39:53;3.13;;;1.48;;
45322;SDS011;31382;50.200;8.674;2023-07-08T14:44:55;6.32;;;2.28;;
45322;SDS011;31382;50.200;8.674;2023-07-08T14:49:56;4.30;;;1.90;;
45322;SDS011;31382;50.200;8.674;2023-07-08T14:54:58;8.32;;;1.83;;
45322;SDS011;31382;50.200;8.674;2023-07-08T14:59:59;4.18;;;1.83;;
45322;SDS011;31382;50.200;8.674;2023-07-08T15:05:01;3.88;;;1.40;;
45322;SDS011;31382;50.200;8.674;2023-07-08T15:10:03;4.70;;;1.58;;
45322;SDS011;31382;50.200;8.674;2023-07-08T15:15:05;3.15;;;1.52;;
45322;SDS011;31382;50.200;8.674;2023-07-08T15:20:14;3.63;;;1.75;;
45322;SDS011;31382;50.200;8.674;2023-07-08T15:25:16;3.97;;;1.42;;
45322;SDS011;31382;50.200;8.674;2023-07-08T15:30:22;3.53;;;1.58;;
45322;SDS011;31382;50.200;8.674;2023-07-08T15:35:26;2.58;;;1.60;;
45322;SDS011;31382;50.200;8.674;2023-07-08T15:40:34;3.47;;;1.52;;
45322;SDS011;31382;50.200;8.674;2023-07-08T15:45:36;3.45;;;2.05;;
45322;SDS011;31382;50.200;8.674;2023-07-08T15:50:38;4.40;;;1.63;;
45322;SDS011;31382;50.200;8.674;2023-07-08T15:55:40;6.82;;;1.70;;
45322;SDS011;31382;50.200;8.674;2023-07-08T16:00:44;3.17;;;1.85;;
45322;SDS011;31382;50.200;8.674;2023-07-08T16:05:45;3.67;;;1.75;;
45322;SDS011;31382;50.200;8.674;2023-07-08T16:10:51;5.15;;;1.85;;
45322;SDS011;31382;50.200;8.674;2023-07-08T16:16:02;6.57;;;1.83;;
45322;SDS011;31382;50.200;8.674;2023-07-08T16:21:05;4.78;;;1.55;;
45322;SDS011;31382;50.200;8.674;2023-07-08T16:26:08;4.25;;;1.58;;
45322;SDS011;31382;50.200;8.674;2023-07-08T16:31:18;3.85;;;1.90;;
45322;SDS011;31382;50.200;8.674;2023-07-08T16:36:22;6.22;;;2.83;;
45322;SDS011;31382;50.200;8.674;2023-07-08T16:41:27;2.78;;;2.50;;
45322;SDS011;31382;50.200;8.674;2023-07-08T16:46:36;4.90;;;1.90;;
45322;SDS011;31382;50.200;8.674;2023-07-08T16:51:38;6.32;;;1.92;;
45322;SDS011;31382;50.200;8.674;2023-07-08T16:56:39;7.20;;;2.25;;
45322;SDS011;31382;50.200;8.674;2023-07-08T17:01:42;7.15;;;2.00;;
45322;SDS011;31382;50.200;8.674;2023-07-08T17:06:45;2.95;;;1.50;;
45322;SDS011;31382;50.200;8.674;2023-07-08T17:11:47;3.22;;;1.67;;
45322;SDS011;31382;50.200;8.674;2023-07-08T17:16:48;4.03;;;2.22;;
45322;SDS011;31382;50.200;8.674;2023-07-08T17:21:50;4.47;;;2.13;;
45322;SDS011;31382;50.200;8.674;2023-07-08T17:26:51;3.47;;;1.55;;
45322;SDS011;31382;50.200;8.674;2023-07-08T17:31:53;2.45;;;1.92;;
45322;SDS011;31382;50.200;8.674;2023-07-08T17:36:56;3.85;;;1.50;;
45322;SDS011;31382;50.200;8.674;2023-07-08T17:41:58;3.38;;;1.75;;
45322;SDS011;31382;50.200;8.674;2023-07-08T17:46:59;4.10;;;2.22;;
45322;SDS011;31382;50.200;8.674;2023-07-08T17:52:01;5.57;;;2.22;;
45322;SDS011;31382;50.200;8.674;2023-07-08T17:57:03;5.38;;;1.55;;
45322;SDS011;31382;50.200;8.674;2023-07-08T18:02:14;2.78;;;1.50;;
45322;SDS011;31382;50.200;8.674;2023-07-08T18:07:17;2.30;;;1.63;;
45322;SDS011;31382;50.200;8.674;2023-07-08T18:12:18;5.50;;;3.05;;
45322;SDS011;31382;50.200;8.674;2023-07-08T18:17:20;6.25;;;2.17;;
45322;SDS011;31382;50.200;8.674;2023-07-08T18:22:21;4.55;;;1.70;;
45322;SDS011;31382;50.200;8.674;2023-07-08T18:27:23;4.68;;;2.20;;
45322;SDS011;31382;50.200;8.674;2023-07-08T18:32:24;5.50;;;2.65;;
45322;SDS011;31382;50.200;8.674;2023-07-08T18:37:25;4.82;;;2.42;;
45322;SDS011;31382;50.200;8.674;2023-07-08T18:42:27;3.05;;;1.30;;
45322;SDS011;31382;50.200;8.674;2023-07-08T18:47:28;4.18;;;1.63;;
45322;SDS011;31382;50.200;8.674;2023-07-08T18:52:30;2.72;;;1.40;;
45322;SDS011;31382;50.200;8.674;2023-07-08T18:57:32;2.83;;;1.10;;
45322;SDS011;31382;50.200;8.674;2023-07-08T19:02:34;4.10;;;1.20;;
45322;SDS011;31382;50.200;8.674;2023-07-08T19:07:40;3.95;;;1.13;;
45322;SDS011;31382;50.200;8.674;2023-07-08T19:12:45;2.85;;;1.73;;
45322;SDS011;31382;50.200;8.674;2023-07-08T19:17:48;2.88;;;0.98;;
45322;SDS011;31382;50.200;8.674;2023-07-08T19:22:51;1.90;;;0.90;;
45322;SDS011;31382;50.200;8.674;2023-07-08T19:27:53;1.33;;;0.70;;
45322;SDS011;31382;50.200;8.674;2023-07-08T19:32:55;2.60;;;0.85;;
45322;SDS011;31382;50.200;8.674;2023-07-08T19:37:58;2.67;;;0.77;;
45322;SDS011;31382;50.200;8.674;2023-07-08T19:42:59;3.42;;;1.30;;
45322;SDS011;31382;50.200;8.674;2023-07-08T19:48:01;2.85;;;0.75;;
45322;SDS011;31382;50.200;8.674;2023-07-08T19:53:02;2.38;;;0.77;;
45322;SDS011;31382;50.200;8.674;2023-07-08T19:58:05;1.85;;;0.82;;
45322;SDS011;31382;50.200;8.674;2023-07-08T20:03:11;3.50;;;0.85;;
45322;SDS011;31382;50.200;8.674;2023-07-08T20:08:29;3.33;;;0.93;;
45322;SDS011;31382;50.200;8.674;2023-07-08T20:13:32;2.20;;;0.98;;
45322;SDS011;31382;50.200;8.674;2023-07-08T20:18:34;2.83;;;1.00;;
45322;SDS011;31382;50.200;8.674;2023-07-08T20:23:36;4.45;;;1.10;;
45322;SDS011;31382;50.200;8.674;2023-07-08T20:28:38;3.05;;;0.85;;
45322;SDS011;31382;50.200;8.674;2023-07-08T20:33:47;2.40;;;0.65;;
45322;SDS011;31382;50.200;8.674;2023-07-08T20:38:49;1.90;;;0.60;;
45322;SDS011;31382;50.200;8.674;2023-07-08T20:43:51;7.50;;;4.35;;
45322;SDS011;31382;50.200;8.674;2023-07-08T20:48:56;4.55;;;1.85;;
45322;SDS011;31382;50.200;8.674;2023-07-08T20:53:59;6.28;;;1.77;;
45322;SDS011;31382;50.200;8.674;2023-07-08T20:59:00;3.72;;;1.90;;
45322;SDS011;31382;50.200;8.674;2023-07-08T21:04:02;3.85;;;2.00;;
45322;SDS011;31382;50.200;8.674;2023-07-08T21:09:04;6.35;;;1.73;;
45322;SDS011;31382;50.200;8.674;2023-07-08T21:14:05;2.60;;;1.17;;
45322;SDS011;31382;50.200;8.674;2023-07-08T21:19:07;4.55;;;0.90;;
45322;SDS011;31382;50.200;8.674;2023-07-08T21:24:13;3.28;;;1.35;;
45322;SDS011;31382;50.200;8.674;2023-07-08T21:29:15;4.63;;;1.30;;
45322;SDS011;31382;50.200;8.674;2023-07-08T21:34:17;3.20;;;1.00;;
45322;SDS011;31382;50.200;8.674;2023-07-08T21:44:30;5.03;;;1.73;;
45322;SDS011;31382;50.200;8.674;2023-07-08T21:49:31;2.92;;;1.40;;
45322;SDS011;31382;50.200;8.674;2023-07-08T21:54:33;3.40;;;1.30;;
45322;SDS011;31382;50.200;8.674;2023-07-08T21:59:34;2.88;;;0.80;;
45322;SDS011;31382;50.200;8.674;2023-07-08T22:04:36;3.40;;;1.17;;
45322;SDS011;31382;50.200;8.674;2023-07-08T22:09:38;1.40;;;1.00;;
45322;SDS011;31382;50.200;8.674;2023-07-08T22:14:39;2.75;;;1.17;;
45322;SDS011;31382;50.200;8.674;2023-07-08T22:19:42;2.70;;;0.52;;
45322;SDS011;31382;50.200;8.674;2023-07-08T22:24:44;2.08;;;1.02;;
45322;SDS011;31382;50.200;8.674;2023-07-08T22:29:45;4.13;;;0.70;;
45322;SDS011;31382;50.200;8.674;2023-07-08T22:34:46;4.68;;;0.85;;
45322;SDS011;31382;50.200;8.674;2023-07-08T22:39:48;2.15;;;1.25;;
45322;SDS011;31382;50.200;8.674;2023-07-08T22:44:49;3.28;;;1.00;;
45322;SDS011;31382;50.200;8.674;2023-07-08T22:49:51;3.58;;;1.13;;
45322;SDS011;31382;50.200;8.674;2023-07-08T22:54:53;3.05;;;0.73;;
45322;SDS011;31382;50.200;8.674;2023-07-08T22:59:58;3.08;;;0.98;;
45322;SDS011;31382;50.200;8.674;2023-07-08T23:04:59;6.72;;;1.00;;
45322;SDS011;31382;50.200;8.674;2023-07-08T23:10:00;2.35;;;0.90;;
45322;SDS011;31382;50.200;8.674;2023-07-08T23:15:02;2.50;;;1.50;;
45322;SDS011;31382;50.200;8.674;2023-07-08T23:20:04;3.90;;;1.77;;
45322;SDS011;31382;50.200;8.674;2023-07-08T23:25:12;6.07;;;2.38;;
45322;SDS011;31382;50.200;8.674;2023-07-08T23:30:16;8.00;;;2.10;;
45322;SDS011;31382;50.200;8.674;2023-07-08T23:35:19;5.45;;;1.13;;
45322;SDS011;31382;50.200;8.674;2023-07-08T23:40:20;4.70;;;0.93;;
45322;SDS011;31382;50.200;8.674;2023-07-08T23:45:22;3.80;;;1.00;;
45322;SDS011;31382;50.200;8.674;2023-07-08T23:50:23;4.50;;;1.00;;
45322;SDS011;31382;50.200;8.674;2023-07-08T23:55:26;2.58;;;1.02;;
